sensor_id;sensor_type;location;lat;lon;timestamp;pressure;altitude;pressure_sealevel;temperature;humidity
46583;BME280;32309;48.858;8.252;2023-04-23T00:00:27;99718.97;;;13.34;83.62
46583;BME280;32309;48.858;8.252;2023-04-23T00:02:29;99715.69;;;13.32;83.38
46583;BME280;32309;48.858;8.252;2023-04-23T00:04:32;99711.41;;;13.31;83.17
46583;BME280;32309;48.858;8.252;2023-04-23T00:06:36;99713.22;;;13.30;83.38
46583;BME280;32309;48.858;8.252;2023-04-23T00:08:40;99707.41;;;13.27;84.06
46583;BME280;32309;48.858;8.252;2023-04-23T00:10:41;99722.28;;;13.25;83.74
46583;BME280;32309;48.858;8.252;2023-04-23T00:12:41;99718.41;;;13.19;83.55
46583;BME280;32309;48.858;8.252;2023-04-23T00:14:42;99720.53;;;13.14;84.30
46583;BME280;32309;48.858;8.252;2023-04-23T00:16:43;99718.41;;;13.08;85.07
46583;BME280;32309;48.858;8.252;2023-04-23T00:18:46;99721.13;;;13.06;84.35
46583;BME280;32309;48.858;8.252;2023-04-23T00:20:49;99723.97;;;13.03;84.82
46583;BME280;32309;48.858;8.252;2023-04-23T00:22:52;99726.81;;;13.00;84.76
46583;BME280;32309;48.858;8.252;2023-04-23T00:24:52;99722.88;;;12.94;83.02
46583;BME280;32309;48.858;8.252;2023-04-23T00:26:52;99727.28;;;12.94;84.87
46583;BME280;32309;48.858;8.252;2023-04-23T00:28:53;99725.25;;;12.86;86.60
46583;BME280;32309;48.858;8.252;2023-04-23T00:30:55;99727.16;;;12.84;86.80
46583;BME280;32309;48.858;8.252;2023-04-23T00:32:56;99722.75;;;12.85;83.51
46583;BME280;32309;48.858;8.252;2023-04-23T00:34:56;99716.84;;;12.82;85.25
46583;BME280;32309;48.858;8.252;2023-04-23T00:37:00;99726.53;;;12.80;85.16
46583;BME280;32309;48.858;8.252;2023-04-23T00:39:00;99731.03;;;12.78;86.69
46583;BME280;32309;48.858;8.252;2023-04-23T00:41:03;99724.28;;;12.76;83.72
46583;BME280;32309;48.858;8.252;2023-04-23T00:43:04;99730.44;;;12.75;86.82
46583;BME280;32309;48.858;8.252;2023-04-23T00:45:06;99727.44;;;12.68;87.52
46583;BME280;32309;48.858;8.252;2023-04-23T00:47:09;99729.47;;;12.64;88.31
46583;BME280;32309;48.858;8.252;2023-04-23T00:49:11;99731.22;;;12.64;82.71
46583;BME280;32309;48.858;8.252;2023-04-23T00:51:13;99742.47;;;12.64;87.24
46583;BME280;32309;48.858;8.252;2023-04-23T00:53:15;99727.00;;;12.63;86.82
46583;BME280;32309;48.858;8.252;2023-04-23T00:55:16;99733.94;;;12.62;87.95
46583;BME280;32309;48.858;8.252;2023-04-23T00:57:23;99726.50;;;12.58;86.37
46583;BME280;32309;48.858;8.252;2023-04-23T00:59:27;99726.50;;;12.58;88.51
46583;BME280;32309;48.858;8.252;2023-04-23T01:01:27;99727.19;;;12.60;88.19
46583;BME280;32309;48.858;8.252;2023-04-23T01:03:29;99727.44;;;12.57;88.78
46583;BME280;32309;48.858;8.252;2023-04-23T01:05:31;99727.56;;;12.55;87.68
46583;BME280;32309;48.858;8.252;2023-04-23T01:07:34;99728.50;;;12.54;87.69
46583;BME280;32309;48.858;8.252;2023-04-23T01:09:36;99726.94;;;12.52;87.75
46583;BME280;32309;48.858;8.252;2023-04-23T01:11:37;99722.69;;;12.51;88.28
46583;BME280;32309;48.858;8.252;2023-04-23T01:13:38;99723.63;;;12.49;87.89
46583;BME280;32309;48.858;8.252;2023-04-23T01:15:43;99723.75;;;12.48;89.29
46583;BME280;32309;48.858;8.252;2023-04-23T01:17:44;99723.75;;;12.48;87.28
46583;BME280;32309;48.858;8.252;2023-04-23T01:19:44;99722.19;;;12.45;89.24
46583;BME280;32309;48.858;8.252;2023-04-23T01:21:44;99730.84;;;12.46;87.61
46583;BME280;32309;48.858;8.252;2023-04-23T01:23:46;99724.69;;;12.47;87.89
46583;BME280;32309;48.858;8.252;2023-04-23T01:25:48;99725.53;;;12.47;89.19
46583;BME280;32309;48.858;8.252;2023-04-23T01:27:52;99720.44;;;12.46;88.05
46583;BME280;32309;48.858;8.252;2023-04-23T01:29:52;99724.81;;;12.45;85.73
46583;BME280;32309;48.858;8.252;2023-04-23T01:31:56;99728.34;;;12.44;87.10
46583;BME280;32309;48.858;8.252;2023-04-23T01:33:58;99723.25;;;12.43;87.93
46583;BME280;32309;48.858;8.252;2023-04-23T01:36:01;99730.25;;;12.42;88.06
46583;BME280;32309;48.858;8.252;2023-04-23T01:38:02;99731.06;;;12.43;88.17
46583;BME280;32309;48.858;8.252;2023-04-23T01:40:04;99731.06;;;12.43;87.57
46583;BME280;32309;48.858;8.252;2023-04-23T01:42:07;99729.31;;;12.43;89.59
46583;BME280;32309;48.858;8.252;2023-04-23T01:44:10;99737.22;;;12.42;89.41
46583;BME280;32309;48.858;8.252;2023-04-23T01:46:11;99743.22;;;12.42;87.96
46583;BME280;32309;48.858;8.252;2023-04-23T01:48:11;99736.25;;;12.43;88.49
46583;BME280;32309;48.858;8.252;2023-04-23T01:50:12;99745.00;;;12.42;87.43
46583;BME280;32309;48.858;8.252;2023-04-23T01:52:15;99745.81;;;12.42;87.95
46583;BME280;32309;48.858;8.252;2023-04-23T01:54:16;99749.38;;;12.41;87.72
46583;BME280;32309;48.858;8.252;2023-04-23T01:56:16;99746.06;;;12.39;88.14
46583;BME280;32309;48.858;8.252;2023-04-23T01:58:27;99750.31;;;12.40;89.12
46583;BME280;32309;48.858;8.252;2023-04-23T02:00:33;99741.69;;;12.40;89.11
46583;BME280;32309;48.858;8.252;2023-04-23T02:02:34;99740.03;;;12.39;89.24
46583;BME280;32309;48.858;8.252;2023-04-23T02:04:34;99738.34;;;12.38;89.39
46583;BME280;32309;48.858;8.252;2023-04-23T02:06:37;99735.88;;;12.36;89.64
46583;BME280;32309;48.858;8.252;2023-04-23T02:08:38;99733.16;;;12.38;88.89
46583;BME280;32309;48.858;8.252;2023-04-23T02:10:38;99730.56;;;12.38;89.14
46583;BME280;32309;48.858;8.252;2023-04-23T02:12:39;99737.53;;;12.37;88.77
46583;BME280;32309;48.858;8.252;2023-04-23T02:14:39;99737.78;;;12.34;89.59
46583;BME280;32309;48.858;8.252;2023-04-23T02:16:40;99742.00;;;12.35;88.96
46583;BME280;32309;48.858;8.252;2023-04-23T02:18:40;99740.97;;;12.38;88.67
46583;BME280;32309;48.858;8.252;2023-04-23T02:20:41;99735.88;;;12.36;89.84
46583;BME280;32309;48.858;8.252;2023-04-23T02:22:41;99740.13;;;12.37;89.03
46583;BME280;32309;48.858;8.252;2023-04-23T02:24:44;99741.91;;;12.37;89.23
46583;BME280;32309;48.858;8.252;2023-04-23T02:26:46;99738.72;;;12.33;89.33
46583;BME280;32309;48.858;8.252;2023-04-23T02:28:48;99739.66;;;12.32;89.44
46583;BME280;32309;48.858;8.252;2023-04-23T02:30:51;99736.94;;;12.34;89.22
46583;BME280;32309;48.858;8.252;2023-04-23T02:32:54;99733.41;;;12.35;89.03
46583;BME280;32309;48.858;8.252;2023-04-23T02:34:54;99738.59;;;12.35;87.13
46583;BME280;32309;48.858;8.252;2023-04-23T02:36:55;99734.22;;;12.35;89.11
46583;BME280;32309;48.858;8.252;2023-04-23T02:39:03;99734.34;;;12.34;89.30
46583;BME280;32309;48.858;8.252;2023-04-23T02:41:04;99733.41;;;12.35;89.10
46583;BME280;32309;48.858;8.252;2023-04-23T02:43:04;99737.66;;;12.36;88.51
46583;BME280;32309;48.858;8.252;2023-04-23T02:45:05;99727.16;;;12.37;88.39
46583;BME280;32309;48.858;8.252;2023-04-23T02:47:09;99723.72;;;12.37;89.16
46583;BME280;32309;48.858;8.252;2023-04-23T02:49:20;99721.22;;;12.35;86.94
46583;BME280;32309;48.858;8.252;2023-04-23T02:51:21;99717.91;;;12.33;89.37
46583;BME280;32309;48.858;8.252;2023-04-23T02:53:25;99717.19;;;12.31;89.35
46583;BME280;32309;48.858;8.252;2023-04-23T02:55:32;99718.97;;;12.30;89.82
46583;BME280;32309;48.858;8.252;2023-04-23T02:57:32;99725.00;;;12.31;88.07
46583;BME280;32309;48.858;8.252;2023-04-23T02:59:33;99721.56;;;12.30;89.51
46583;BME280;32309;48.858;8.252;2023-04-23T03:01:36;99732.78;;;12.31;89.46
46583;BME280;32309;48.858;8.252;2023-04-23T03:03:36;99728.56;;;12.30;89.63
46583;BME280;32309;48.858;8.252;2023-04-23T03:05:37;99731.25;;;12.28;89.07
46583;BME280;32309;48.858;8.252;2023-04-23T03:07:37;99731.34;;;12.27;89.59
46583;BME280;32309;48.858;8.252;2023-04-23T03:09:38;99735.00;;;12.24;90.42
46583;BME280;32309;48.858;8.252;2023-04-23T03:11:38;99743.72;;;12.23;90.00
46583;BME280;32309;48.858;8.252;2023-04-23T03:13:38;99740.56;;;12.20;89.31
46583;BME280;32309;48.858;8.252;2023-04-23T03:15:39;99742.22;;;12.21;89.95
46583;BME280;32309;48.858;8.252;2023-04-23T03:17:40;99738.88;;;12.19;89.57
46583;BME280;32309;48.858;8.252;2023-04-23T03:19:40;99750.22;;;12.18;90.30
46583;BME280;32309;48.858;8.252;2023-04-23T03:21:43;99738.06;;;12.18;87.08
46583;BME280;32309;48.858;8.252;2023-04-23T03:23:43;99745.94;;;12.17;88.52
46583;BME280;32309;48.858;8.252;2023-04-23T03:25:43;99748.47;;;12.18;89.50
46583;BME280;32309;48.858;8.252;2023-04-23T03:27:46;99753.66;;;12.18;89.16
46583;BME280;32309;48.858;8.252;2023-04-23T03:29:47;99756.25;;;12.18;88.40
46583;BME280;32309;48.858;8.252;2023-04-23T03:31:47;99758.63;;;12.21;89.63
46583;BME280;32309;48.858;8.252;2023-04-23T03:33:47;99753.31;;;12.23;89.42
46583;BME280;32309;48.858;8.252;2023-04-23T03:35:48;99755.78;;;12.24;89.92
46583;BME280;32309;48.858;8.252;2023-04-23T03:37:48;99750.47;;;12.26;88.22
46583;BME280;32309;48.858;8.252;2023-04-23T03:39:48;99749.66;;;12.25;89.85
46583;BME280;32309;48.858;8.252;2023-04-23T03:41:57;99747.06;;;12.25;90.08
46583;BME280;32309;48.858;8.252;2023-04-23T03:43:58;99754.63;;;12.28;90.06
46583;BME280;32309;48.858;8.252;2023-04-23T03:45:58;99752.03;;;12.28;88.59
46583;BME280;32309;48.858;8.252;2023-04-23T03:47:58;99759.94;;;12.27;90.60
46583;BME280;32309;48.858;8.252;2023-04-23T03:49:59;99755.69;;;12.26;90.40
46583;BME280;32309;48.858;8.252;2023-04-23T03:52:01;99760.06;;;12.25;90.12
46583;BME280;32309;48.858;8.252;2023-04-23T03:54:01;99754.13;;;12.23;89.29
46583;BME280;32309;48.858;8.252;2023-04-23T03:56:02;99762.88;;;12.22;87.79
46583;BME280;32309;48.858;8.252;2023-04-23T03:58:02;99765.59;;;12.21;90.01
46583;BME280;32309;48.858;8.252;2023-04-23T04:00:03;99767.47;;;12.19;90.17
46583;BME280;32309;48.858;8.252;2023-04-23T04:02:07;99765.00;;;12.17;90.73
46583;BME280;32309;48.858;8.252;2023-04-23T04:04:07;99768.41;;;12.18;90.38
46583;BME280;32309;48.858;8.252;2023-04-23T04:06:10;99771.13;;;12.16;90.16
46583;BME280;32309;48.858;8.252;2023-04-23T04:08:10;99771.22;;;12.14;91.41
46583;BME280;32309;48.858;8.252;2023-04-23T04:10:11;99768.75;;;12.13;90.73
46583;BME280;32309;48.858;8.252;2023-04-23T04:12:14;99762.00;;;12.10;91.56
46583;BME280;32309;48.858;8.252;2023-04-23T04:14:15;99764.72;;;12.09;91.32
46583;BME280;32309;48.858;8.252;2023-04-23T04:16:15;99761.63;;;12.04;92.90
46583;BME280;32309;48.858;8.252;2023-04-23T04:18:15;99757.25;;;12.04;91.69
46583;BME280;32309;48.858;8.252;2023-04-23T04:20:16;99767.63;;;12.04;92.61
46583;BME280;32309;48.858;8.252;2023-04-23T04:22:19;99766.09;;;12.02;93.60
46583;BME280;32309;48.858;8.252;2023-04-23T04:24:20;99762.06;;;11.97;93.63
46583;BME280;32309;48.858;8.252;2023-04-23T04:26:20;99760.16;;;11.99;92.38
46583;BME280;32309;48.858;8.252;2023-04-23T04:35:18;99756.03;;;11.97;92.97
46583;BME280;32309;48.858;8.252;2023-04-23T04:37:19;99762.88;;;11.98;93.32
46583;BME280;32309;48.858;8.252;2023-04-23T04:39:20;99760.28;;;11.98;93.17
46583;BME280;32309;48.858;8.252;2023-04-23T04:41:21;99759.56;;;11.96;93.27
46583;BME280;32309;48.858;8.252;2023-04-23T04:43:26;99761.13;;;11.98;93.67
46583;BME280;32309;48.858;8.252;2023-04-23T04:45:36;99752.47;;;11.98;93.74
46583;BME280;32309;48.858;8.252;2023-04-23T04:47:46;99748.13;;;11.98;93.46
46583;BME280;32309;48.858;8.252;2023-04-23T04:52:39;99747.78;;;12.03;93.05
46583;BME280;32309;48.858;8.252;2023-04-23T04:55:14;99755.56;;;12.03;92.96
46583;BME280;32309;48.858;8.252;2023-04-23T04:58:19;99749.44;;;12.04;92.18
46583;BME280;32309;48.858;8.252;2023-04-23T05:02:44;99758.91;;;12.05;92.60
46583;BME280;32309;48.858;8.252;2023-04-23T05:05:37;99762.56;;;12.03;92.29
46583;BME280;32309;48.858;8.252;2023-04-23T05:08:09;99758.41;;;12.00;92.74
46583;BME280;32309;48.858;8.252;2023-04-23T08:31:27;99646.91;;;15.05;73.93
46583;BME280;32309;48.858;8.252;2023-04-23T08:33:54;99649.25;;;15.08;73.97
46583;BME280;32309;48.858;8.252;2023-04-23T08:36:25;99647.25;;;15.22;72.94
46583;BME280;32309;48.858;8.252;2023-04-23T08:38:28;99639.84;;;15.37;74.48
46583;BME280;32309;48.858;8.252;2023-04-23T08:40:29;99629.41;;;15.46;74.01
46583;BME280;32309;48.858;8.252;2023-04-23T08:42:37;99630.81;;;15.51;72.79
46583;BME280;32309;48.858;8.252;2023-04-23T08:44:45;99630.81;;;15.60;72.33
46583;BME280;32309;48.858;8.252;2023-04-23T08:46:45;99634.66;;;15.66;70.51
46583;BME280;32309;48.858;8.252;2023-04-23T08:48:47;99626.81;;;15.76;70.73
46583;BME280;32309;48.858;8.252;2023-04-23T08:50:53;99631.66;;;15.80;69.46
46583;BME280;32309;48.858;8.252;2023-04-23T08:52:59;99627.94;;;15.83;69.15
46583;BME280;32309;48.858;8.252;2023-04-23T08:55:42;99618.84;;;15.87;67.71
46583;BME280;32309;48.858;8.252;2023-04-23T08:57:54;99628.22;;;15.90;66.40
46583;BME280;32309;48.858;8.252;2023-04-23T08:59:57;99624.50;;;15.92;67.19
46583;BME280;32309;48.858;8.252;2023-04-23T09:01:58;99619.81;;;15.96;70.36
46583;BME280;32309;48.858;8.252;2023-04-23T09:04:00;99627.41;;;15.89;65.66
46583;BME280;32309;48.858;8.252;2023-04-23T09:06:01;99618.59;;;15.90;68.34
46583;BME280;32309;48.858;8.252;2023-04-23T09:08:02;99628.78;;;15.93;67.62
46583;BME280;32309;48.858;8.252;2023-04-23T09:10:03;99619.81;;;15.96;68.94
46583;BME280;32309;48.858;8.252;2023-04-23T09:12:07;99618.03;;;15.96;66.87
46583;BME280;32309;48.858;8.252;2023-04-23T09:14:08;99615.41;;;15.96;67.41
46583;BME280;32309;48.858;8.252;2023-04-23T09:16:08;99609.53;;;15.94;63.35
46583;BME280;32309;48.858;8.252;2023-04-23T09:18:09;99608.28;;;15.99;68.00
46583;BME280;32309;48.858;8.252;2023-04-23T09:20:10;99603.31;;;15.95;64.08
46583;BME280;32309;48.858;8.252;2023-04-23T09:22:11;99604.56;;;16.01;65.72
46583;BME280;32309;48.858;8.252;2023-04-23T09:24:12;99593.97;;;16.03;64.60
46583;BME280;32309;48.858;8.252;2023-04-23T09:26:20;99585.81;;;16.06;66.63
46583;BME280;32309;48.858;8.252;2023-04-23T09:28:26;99579.63;;;16.07;64.27
46583;BME280;32309;48.858;8.252;2023-04-23T09:30:37;99578.78;;;16.26;64.82
46583;BME280;32309;48.858;8.252;2023-04-23T09:32:40;99571.59;;;16.38;63.63
46583;BME280;32309;48.858;8.252;2023-04-23T09:34:41;99569.88;;;16.46;63.49
46583;BME280;32309;48.858;8.252;2023-04-23T09:36:41;99567.81;;;16.50;63.53
46583;BME280;32309;48.858;8.252;2023-04-23T09:38:42;99566.94;;;16.59;61.58
46583;BME280;32309;48.858;8.252;2023-04-23T09:40:42;99567.44;;;16.73;63.63
46583;BME280;32309;48.858;8.252;2023-04-23T09:42:46;99565.28;;;16.86;64.90
46583;BME280;32309;48.858;8.252;2023-04-23T09:44:59;99555.78;;;16.85;60.43
46583;BME280;32309;48.858;8.252;2023-04-23T09:47:06;99567.91;;;16.86;59.56
46583;BME280;32309;48.858;8.252;2023-04-23T09:49:09;99562.28;;;16.91;58.32
46583;BME280;32309;48.858;8.252;2023-04-23T09:51:12;99555.22;;;17.01;61.46
46583;BME280;32309;48.858;8.252;2023-04-23T09:53:14;99553.19;;;17.13;57.63
46583;BME280;32309;48.858;8.252;2023-04-23T09:55:14;99544.88;;;17.18;56.26
46583;BME280;32309;48.858;8.252;2023-04-23T09:57:14;99546.38;;;17.20;56.68
46583;BME280;32309;48.858;8.252;2023-04-23T09:59:18;99545.94;;;17.25;62.42
46583;BME280;32309;48.858;8.252;2023-04-23T10:01:26;99543.59;;;17.22;59.15
46583;BME280;32309;48.858;8.252;2023-04-23T10:03:27;99545.03;;;17.16;59.07
46583;BME280;32309;48.858;8.252;2023-04-23T10:05:27;99539.81;;;17.16;58.45
46583;BME280;32309;48.858;8.252;2023-04-23T10:07:28;99534.56;;;17.16;57.47
46583;BME280;32309;48.858;8.252;2023-04-23T10:09:29;99528.75;;;17.22;60.77
46583;BME280;32309;48.858;8.252;2023-04-23T10:11:29;99524.00;;;17.26;56.09
46583;BME280;32309;48.858;8.252;2023-04-23T10:13:30;99521.75;;;17.31;56.11
46583;BME280;32309;48.858;8.252;2023-04-23T10:15:31;99530.84;;;17.37;57.66
46583;BME280;32309;48.858;8.252;2023-04-23T10:17:34;99520.19;;;17.38;56.11
46583;BME280;32309;48.858;8.252;2023-04-23T10:19:35;99513.31;;;17.37;55.37
46583;BME280;32309;48.858;8.252;2023-04-23T10:21:37;99519.97;;;17.32;54.16
46583;BME280;32309;48.858;8.252;2023-04-23T10:23:37;99519.19;;;17.39;54.85
46583;BME280;32309;48.858;8.252;2023-04-23T10:25:42;99513.38;;;17.45;54.78
46583;BME280;32309;48.858;8.252;2023-04-23T10:27:43;99515.41;;;17.52;55.04
46583;BME280;32309;48.858;8.252;2023-04-23T10:29:45;99510.31;;;17.50;55.29
46583;BME280;32309;48.858;8.252;2023-04-23T10:31:47;99511.94;;;17.51;54.11
46583;BME280;32309;48.858;8.252;2023-04-23T10:33:48;99515.75;;;17.57;54.25
46583;BME280;32309;48.858;8.252;2023-04-23T10:35:49;99513.00;;;17.58;54.57
46583;BME280;32309;48.858;8.252;2023-04-23T10:37:51;99515.75;;;17.57;54.24
46583;BME280;32309;48.858;8.252;2023-04-23T10:39:55;99505.13;;;17.58;56.53
46583;BME280;32309;48.858;8.252;2023-04-23T10:42:08;99505.44;;;17.55;57.43
46583;BME280;32309;48.858;8.252;2023-04-23T10:44:13;99505.22;;;17.49;53.78
46583;BME280;32309;48.858;8.252;2023-04-23T10:46:31;99505.06;;;17.50;54.21
46583;BME280;32309;48.858;8.252;2023-04-23T10:48:50;99502.09;;;17.45;54.12
46583;BME280;32309;48.858;8.252;2023-04-23T10:50:56;99489.34;;;17.50;54.48
46583;BME280;32309;48.858;8.252;2023-04-23T10:53:00;99489.94;;;17.62;55.10
46583;BME280;32309;48.858;8.252;2023-04-23T10:55:01;99483.75;;;17.71;57.16
46583;BME280;32309;48.858;8.252;2023-04-23T10:57:05;99487.59;;;17.85;53.54
46583;BME280;32309;48.858;8.252;2023-04-23T10:59:20;99478.84;;;17.94;55.67
46583;BME280;32309;48.858;8.252;2023-04-23T11:01:25;99477.88;;;17.95;54.36
46583;BME280;32309;48.858;8.252;2023-04-23T11:03:38;99466.69;;;17.93;54.32
46583;BME280;32309;48.858;8.252;2023-04-23T11:05:40;99460.25;;;17.88;52.44
46583;BME280;32309;48.858;8.252;2023-04-23T11:08:01;99461.22;;;17.87;53.90
46583;BME280;32309;48.858;8.252;2023-04-23T11:10:12;99459.63;;;17.86;52.84
46583;BME280;32309;48.858;8.252;2023-04-23T11:14:36;99447.47;;;17.85;55.14
46583;BME280;32309;48.858;8.252;2023-04-23T11:16:47;99438.28;;;17.80;53.01
46583;BME280;32309;48.858;8.252;2023-04-23T11:18:57;99433.69;;;17.83;53.97
46583;BME280;32309;48.858;8.252;2023-04-23T11:21:00;99435.84;;;17.87;54.19
46583;BME280;32309;48.858;8.252;2023-04-23T11:23:03;99436.59;;;17.98;54.74
46583;BME280;32309;48.858;8.252;2023-04-23T11:25:15;99428.59;;;18.07;53.84
46583;BME280;32309;48.858;8.252;2023-04-23T11:27:19;99423.38;;;18.16;55.26
46583;BME280;32309;48.858;8.252;2023-04-23T11:29:21;99415.41;;;18.25;56.31
46583;BME280;32309;48.858;8.252;2023-04-23T11:31:22;99412.44;;;18.28;53.38
46583;BME280;32309;48.858;8.252;2023-04-23T11:33:23;99400.81;;;18.31;54.71
46583;BME280;32309;48.858;8.252;2023-04-23T11:35:23;99406.06;;;18.31;53.34
46583;BME280;32309;48.858;8.252;2023-04-23T11:37:28;99414.91;;;18.30;52.54
46583;BME280;32309;48.858;8.252;2023-04-23T11:39:28;99403.94;;;18.35;53.76
46583;BME280;32309;48.858;8.252;2023-04-23T11:41:29;99406.06;;;18.31;51.70
46583;BME280;32309;48.858;8.252;2023-04-23T11:43:29;99403.13;;;18.34;54.63
46583;BME280;32309;48.858;8.252;2023-04-23T11:45:29;99399.84;;;18.32;54.46
46583;BME280;32309;48.858;8.252;2023-04-23T11:47:30;99403.94;;;18.35;51.57
46583;BME280;32309;48.858;8.252;2023-04-23T11:49:41;99390.34;;;18.39;54.07
46583;BME280;32309;48.858;8.252;2023-04-23T11:51:43;99380.38;;;18.51;53.78
46583;BME280;32309;48.858;8.252;2023-04-23T11:53:47;99371.53;;;18.60;52.87
46583;BME280;32309;48.858;8.252;2023-04-23T11:55:48;99362.66;;;18.61;50.68
46583;BME280;32309;48.858;8.252;2023-04-23T11:57:49;99368.72;;;18.62;50.79
46583;BME280;32309;48.858;8.252;2023-04-23T11:59:52;99367.91;;;18.61;50.43
46583;BME280;32309;48.858;8.252;2023-04-23T12:01:56;99361.34;;;18.66;51.42
46583;BME280;32309;48.858;8.252;2023-04-23T12:03:57;99358.25;;;18.78;52.77
46583;BME280;32309;48.858;8.252;2023-04-23T12:05:57;99351.34;;;18.86;53.32
46583;BME280;32309;48.858;8.252;2023-04-23T12:08:08;99345.81;;;18.89;52.49
46583;BME280;32309;48.858;8.252;2023-04-23T12:10:17;99344.94;;;18.88;50.12
46583;BME280;32309;48.858;8.252;2023-04-23T12:12:20;99343.19;;;18.89;50.25
46583;BME280;32309;48.858;8.252;2023-04-23T12:14:24;99342.69;;;18.93;52.46
46583;BME280;32309;48.858;8.252;2023-04-23T12:16:36;99337.09;;;19.05;52.28
46583;BME280;32309;48.858;8.252;2023-04-23T12:18:43;99333.97;;;19.18;50.82
46583;BME280;32309;48.858;8.252;2023-04-23T12:20:44;99334.94;;;19.25;48.96
46583;BME280;32309;48.858;8.252;2023-04-23T12:23:02;99332.66;;;19.22;50.13
46583;BME280;32309;48.858;8.252;2023-04-23T12:25:14;99332.16;;;19.18;47.33
46583;BME280;32309;48.858;8.252;2023-04-23T12:27:18;99337.91;;;19.22;47.22
46583;BME280;32309;48.858;8.252;2023-04-23T12:29:21;99338.53;;;19.24;49.48
46583;BME280;32309;48.858;8.252;2023-04-23T12:31:22;99325.41;;;19.32;50.34
46583;BME280;32309;48.858;8.252;2023-04-23T12:33:32;99323.25;;;19.27;46.36
46583;BME280;32309;48.858;8.252;2023-04-23T12:37:41;99311.25;;;19.33;47.28
46583;BME280;32309;48.858;8.252;2023-04-23T12:39:42;99304.84;;;19.36;49.45
46583;BME280;32309;48.858;8.252;2023-04-23T12:41:42;99300.41;;;19.44;48.96
46583;BME280;32309;48.858;8.252;2023-04-23T12:43:42;99303.50;;;19.40;45.50
46583;BME280;32309;48.858;8.252;2023-04-23T12:45:47;99298.25;;;19.40;47.88
46583;BME280;32309;48.858;8.252;2023-04-23T12:47:48;99294.34;;;19.36;45.59
46583;BME280;32309;48.858;8.252;2023-04-23T12:49:48;99291.53;;;19.37;46.22
46583;BME280;32309;48.858;8.252;2023-04-23T12:51:52;99289.56;;;19.39;48.11
46583;BME280;32309;48.858;8.252;2023-04-23T12:53:56;99279.91;;;19.32;44.93
46583;BME280;32309;48.858;8.252;2023-04-23T12:55:56;99288.59;;;19.40;45.82
46583;BME280;32309;48.858;8.252;2023-04-23T12:57:57;99290.56;;;19.47;45.63
46583;BME280;32309;48.858;8.252;2023-04-23T12:59:58;99282.94;;;19.52;45.80
46583;BME280;32309;48.858;8.252;2023-04-23T13:01:58;99280.13;;;19.61;46.23
46583;BME280;32309;48.858;8.252;2023-04-23T13:04:00;99277.44;;;19.70;45.59
46583;BME280;32309;48.858;8.252;2023-04-23T13:06:01;99270.06;;;19.73;43.43
46583;BME280;32309;48.858;8.252;2023-04-23T13:08:01;99268.34;;;19.81;46.65
46583;BME280;32309;48.858;8.252;2023-04-23T13:10:01;99263.44;;;19.86;44.03
46583;BME280;32309;48.858;8.252;2023-04-23T13:12:02;99269.78;;;19.91;44.00
46583;BME280;32309;48.858;8.252;2023-04-23T13:14:03;99258.91;;;20.03;45.76
46583;BME280;32309;48.858;8.252;2023-04-23T13:16:03;99256.84;;;20.13;45.65
46583;BME280;32309;48.858;8.252;2023-04-23T13:18:04;99245.09;;;20.24;43.89
46583;BME280;32309;48.858;8.252;2023-04-23T13:20:04;99242.69;;;20.37;45.57
46583;BME280;32309;48.858;8.252;2023-04-23T13:22:05;99246.16;;;20.38;42.76
46583;BME280;32309;48.858;8.252;2023-04-23T13:24:06;99245.56;;;20.27;41.73
46583;BME280;32309;48.858;8.252;2023-04-23T13:26:06;99225.22;;;20.21;45.36
46583;BME280;32309;48.858;8.252;2023-04-23T13:28:07;99231.66;;;20.19;42.95
46583;BME280;32309;48.858;8.252;2023-04-23T13:30:07;99229.69;;;20.21;44.12
46583;BME280;32309;48.858;8.252;2023-04-23T13:32:08;99228.69;;;20.22;42.73
46583;BME280;32309;48.858;8.252;2023-04-23T13:34:08;99216.44;;;20.29;43.89
46583;BME280;32309;48.858;8.252;2023-04-23T13:36:08;99211.19;;;20.29;43.61
46583;BME280;32309;48.858;8.252;2023-04-23T13:38:09;99208.34;;;20.16;41.88
46583;BME280;32309;48.858;8.252;2023-04-23T13:40:09;99206.81;;;20.21;42.76
46583;BME280;32309;48.858;8.252;2023-04-23T13:42:10;99196.28;;;20.21;42.83
46583;BME280;32309;48.858;8.252;2023-04-23T13:44:10;99200.56;;;20.22;43.47
46583;BME280;32309;48.858;8.252;2023-04-23T13:46:12;99196.09;;;20.23;43.81
46583;BME280;32309;48.858;8.252;2023-04-23T13:48:13;99190.56;;;20.18;42.93
46583;BME280;32309;48.858;8.252;2023-04-23T13:50:14;99187.38;;;20.07;42.31
46583;BME280;32309;48.858;8.252;2023-04-23T13:52:14;99177.94;;;20.13;43.15
46583;BME280;32309;48.858;8.252;2023-04-23T13:54:14;99180.75;;;20.11;43.55
46583;BME280;32309;48.858;8.252;2023-04-23T13:56:15;99183.38;;;20.11;43.55
46583;BME280;32309;48.858;8.252;2023-04-23T13:58:15;99178.13;;;20.11;43.16
46583;BME280;32309;48.858;8.252;2023-04-23T14:00:16;99174.22;;;20.07;43.39
46583;BME280;32309;48.858;8.252;2023-04-23T14:02:16;99174.03;;;20.09;43.49
46583;BME280;32309;48.858;8.252;2023-04-23T14:04:17;99170.69;;;20.15;43.74
46583;BME280;32309;48.858;8.252;2023-04-23T14:06:17;99161.97;;;20.15;44.23
46583;BME280;32309;48.858;8.252;2023-04-23T14:08:17;99161.47;;;20.19;43.14
46583;BME280;32309;48.858;8.252;2023-04-23T14:10:18;99153.38;;;20.21;42.61
46583;BME280;32309;48.858;8.252;2023-04-23T14:12:18;99152.41;;;20.22;43.52
46583;BME280;32309;48.858;8.252;2023-04-23T14:14:19;99150.19;;;20.25;43.46
46583;BME280;32309;48.858;8.252;2023-04-23T14:16:19;99142.78;;;20.29;43.80
46583;BME280;32309;48.858;8.252;2023-04-23T14:18:19;99140.63;;;20.33;43.71
46583;BME280;32309;48.858;8.252;2023-04-23T14:20:20;99138.59;;;20.35;44.62
46583;BME280;32309;48.858;8.252;2023-04-23T14:22:21;99137.34;;;20.31;42.76
46583;BME280;32309;48.858;8.252;2023-04-23T14:24:22;99127.88;;;20.36;42.97
46583;BME280;32309;48.858;8.252;2023-04-23T14:26:34;99126.81;;;20.31;42.33
46583;BME280;32309;48.858;8.252;2023-04-23T14:28:39;99112.84;;;20.30;42.49
46583;BME280;32309;48.858;8.252;2023-04-23T14:30:43;99121.34;;;20.32;44.48